Flugplatz Schwäbisch Hall (EDTY)

Hier findest Du alle Informationen zum Flugplatz Schwäbisch Hall (EDTY).

Informationen für Piloten zum Flugplatz Schwäbisch Hall

Hier findest Du alle relevanten Informationen, die Du als Pilot benötigst, um Schwäbisch Hall anzufliegen.

Flugplatz: Schwäbisch Hall ICAO-Code: EDTY
Frequenz Turm: 129,225 Mhz GAFOR Gebiet: 55
Frequenz Ground: 129,225 Mhz Mogas: ja
Platzrunde: N 2500 ft Landegebühr: -
Platzhöhe: - Sunrise: 04:13 Uhr UTC
Pisten: 10/28 - 1540 m x 30 m, ASPH Sunset: 18:25 Uhr UTC

Flugwetter am Flugplatz Schwäbisch Hall

Die METAR Information stammen aus EDDS (62.55 km entfernt).

METAR Code:
2021/04/16 11:20
EDDS 161120Z 05005KT 010V070 9999 BKN032 05/M02 Q1023 NOSIG

Temperatur: 4,6 °C Niederschlag: - Wind: 2,0 kt
Temperatur (min.): 3,9 °C Luftdruck: 1018 hPa Windrichtung: 310 °
Temperatur (max.): 5,0 °C Luftfeuchtigkeit: 87 % Bewölkung: 4/8

Flugschulen am Flugplatz Schwäbisch Hall

Am Flugplatz Schwäbisch Hall gibt es leider keine Flugschule.

Benachbarte Flugplätze und Flugschulen

Es gibt 21 weitere Flugplätze in einem Umkreis von 50 km um den Flugplatz Schwäbisch Hall.

Jetzt anmelden

Passwort vergessen

Umfrage Archiv

Seid Ihr aufgrund von Corona im Jahr 2020 mehr oder weniger geflogen als im Jahr zuvor?

weniger
53.8 %
gleich viel
29 %
mehr
17.2 %
Stimmen: 186 | Diskussion
Anzeige: Roland Aircraft
Statistik Alle Mitglieder

Aktuell sind 24 Besucher online.

Anzeige: VFR Sprechfunk Simulator


Anzeige: Pocket FMS